Time;durP1;ratioP1;P1;durP2;ratioP2;P2;SDS_P1;SDS_P2;PMS_P1;PMS_P2;Temp;Humidity;BMP_temperature;BMP_pressure;BME280_temperature;BME280_humidity;BME280_pressure;Samples;Min_cycle;Max_cycle;Signal;HPM_P1;HPM_P2
2021/05/27 00:00:14;;;;;;;8.50;4.50;;;9.10;99.90;;;;;;5093544;28;20191;-66
2021/05/27 00:02:41;;;;;;;5.05;3.75;;;9.10;99.90;;;;;;5093167;28;20195;-66
2021/05/27 00:05:08;;;;;;;4.25;3.80;;;9.10;99.90;;;;;;5093697;28;20278;-66
2021/05/27 00:07:35;;;;;;;4.50;4.10;;;9.10;99.90;;;;;;5093682;28;20278;-66
2021/05/27 00:10:03;;;;;;;3.90;3.60;;;9.10;99.90;;;;;;5093273;28;20191;-66
2021/05/27 00:12:29;;;;;;;4.95;3.88;;;9.10;99.90;;;;;;5093242;28;20188;-66
2021/05/27 00:14:56;;;;;;;4.85;4.25;;;9.10;99.90;;;;;;5093613;28;20216;-66
2021/05/27 00:17:22;;;;;;;4.03;3.53;;;9.10;99.90;;;;;;5093176;28;20552;-66
2021/05/27 00:19:49;;;;;;;3.60;3.40;;;9.10;99.90;;;;;;5093845;28;20283;-66
2021/05/27 00:22:15;;;;;;;4.47;4.07;;;9.10;99.90;;;;;;5093593;28;20195;-66
2021/05/27 00:24:42;;;;;;;4.38;3.97;;;9.20;99.90;;;;;;5093219;28;20197;-66
2021/05/27 00:27:09;;;;;;;4.82;3.72;;;9.20;99.90;;;;;;5092724;28;20211;-66
2021/05/27 00:29:35;;;;;;;4.20;3.55;;;9.20;99.90;;;;;;5093300;28;20204;-66
2021/05/27 00:32:02;;;;;;;3.65;3.35;;;9.20;99.90;;;;;;5092731;28;20210;-66
2021/05/27 00:34:28;;;;;;;7.68;5.30;;;9.30;99.90;;;;;;5093306;28;20211;-64
2021/05/27 00:36:55;;;;;;;3.85;3.45;;;9.30;99.90;;;;;;5095245;28;20344;-65
2021/05/27 00:39:21;;;;;;;4.20;3.85;;;9.30;99.90;;;;;;5097049;28;20207;-65
2021/05/27 00:41:47;;;;;;;3.15;2.95;;;9.30;99.90;;;;;;5096682;28;20212;-65
2021/05/27 00:44:29;;;;;;;4.20;3.80;;;9.30;99.90;;;;;;5096814;28;20199;-65
2021/05/27 00:46:58;;;;;;;4.28;3.45;;;9.30;99.90;;;;;;5096923;28;20340;-65
2021/05/27 00:49:24;;;;;;;3.60;3.40;;;9.40;99.90;;;;;;5096558;28;20214;-65
2021/05/27 00:51:51;;;;;;;6.03;3.90;;;9.40;99.90;;;;;;5096719;28;20257;-65
2021/05/27 00:54:19;;;;;;;3.88;3.50;;;9.40;99.90;;;;;;5096587;28;20702;-65
2021/05/27 00:56:48;;;;;;;3.80;3.30;;;9.40;99.90;;;;;;5078033;28;20206;-65
2021/05/27 00:59:15;;;;;;;3.65;3.33;;;9.40;99.90;;;;;;5096699;28;20215;-65
2021/05/27 01:01:43;;;;;;;4.40;3.70;;;9.40;99.90;;;;;;5078193;28;20206;-66
2021/05/27 01:04:10;;;;;;;3.92;3.63;;;9.40;99.90;;;;;;5096652;28;20581;-66
2021/05/27 01:06:37;;;;;;;6.18;3.92;;;9.40;99.90;;;;;;5096460;28;20206;-66
2021/05/27 01:09:05;;;;;;;5.20;3.65;;;9.40;99.90;;;;;;5096303;28;20203;-66
2021/05/27 01:11:32;;;;;;;6.90;4.63;;;9.30;99.90;;;;;;5095873;28;20208;-66
2021/05/27 01:14:13;;;;;;;5.18;4.00;;;9.30;99.90;;;;;;5077883;28;20221;-66
2021/05/27 01:16:40;;;;;;;4.60;4.07;;;9.30;99.90;;;;;;5096457;28;20175;-64
2021/05/27 01:19:07;;;;;;;3.78;3.50;;;9.20;99.90;;;;;;5096136;28;20596;-64
2021/05/27 01:21:34;;;;;;;5.00;4.45;;;9.20;99.90;;;;;;5095785;28;20195;-64
2021/05/27 01:24:00;;;;;;;4.18;3.78;;;9.20;99.90;;;;;;5095706;28;20217;-64
2021/05/27 01:26:27;;;;;;;4.60;3.70;;;9.10;99.90;;;;;;5096068;28;20218;-64
2021/05/27 01:28:53;;;;;;;6.05;3.60;;;9.10;99.90;;;;;;5096066;28;20187;-64
2021/05/27 01:31:20;;;;;;;4.13;3.92;;;9.10;99.90;;;;;;5095638;28;20192;-64
2021/05/27 01:33:46;;;;;;;4.20;3.80;;;9.00;99.90;;;;;;5095659;28;20571;-64
2021/05/27 01:36:12;;;;;;;9.80;5.03;;;9.00;99.90;;;;;;5095861;28;20560;-64
2021/05/27 01:38:39;;;;;;;4.80;4.40;;;8.90;99.90;;;;;;5095857;28;20273;-64
2021/05/27 01:41:05;;;;;;;6.07;4.68;;;8.80;99.90;;;;;;5095755;28;20211;-64
2021/05/27 01:43:32;;;;;;;6.22;5.30;;;8.80;99.90;;;;;;5095402;28;20207;-64
2021/05/27 01:45:58;;;;;;;6.47;5.97;;;8.70;99.90;;;;;;5095664;28;20207;-64
2021/05/27 01:48:25;;;;;;;6.65;6.05;;;8.60;99.90;;;;;;5094535;28;20199;-64
2021/05/27 01:50:51;;;;;;;8.77;6.30;;;8.60;99.90;;;;;;5095304;28;20558;-64
2021/05/27 01:53:18;;;;;;;6.20;5.60;;;8.50;99.90;;;;;;5094701;28;20211;-64
2021/05/27 01:55:47;;;;;;;5.90;5.30;;;8.50;99.90;;;;;;5094771;28;20206;-64
2021/05/27 01:58:15;;;;;;;6.00;5.45;;;8.50;99.90;;;;;;5095333;28;20556;-64
2021/05/27 02:00:42;;;;;;;10.73;5.40;;;8.50;99.90;;;;;;5095604;28;20201;-64
2021/05/27 02:03:09;;;;;;;5.90;5.40;;;8.40;99.90;;;;;;5095608;28;20188;-64
2021/05/27 02:05:35;;;;;;;6.07;5.47;;;8.40;99.90;;;;;;5095673;28;20218;-64
2021/05/27 02:08:02;;;;;;;6.65;6.03;;;8.40;99.90;;;;;;5095285;28;20203;-64
2021/05/27 02:10:29;;;;;;;6.25;5.65;;;8.40;99.90;;;;;;5095270;28;20341;-64
2021/05/27 02:12:55;;;;;;;6.90;5.38;;;8.40;99.90;;;;;;5095368;28;20201;-65
2021/05/27 02:15:22;;;;;;;6.20;5.65;;;8.40;99.90;;;;;;5095042;28;20217;-65
2021/05/27 02:17:48;;;;;;;7.40;5.90;;;8.30;99.90;;;;;;5094685;28;20207;-65
2021/05/27 02:20:15;;;;;;;22.77;5.90;;;8.30;99.90;;;;;;5095071;28;20582;-64
2021/05/27 02:22:41;;;;;;;5.80;5.30;;;8.40;99.90;;;;;;5094870;28;20274;-64
2021/05/27 02:25:08;;;;;;;6.53;5.95;;;8.40;99.90;;;;;;5094891;28;20207;-64
2021/05/27 02:27:34;;;;;;;10.77;5.55;;;8.40;99.90;;;;;;5094787;28;20202;-63
2021/05/27 02:30:01;;;;;;;5.95;5.32;;;8.40;99.90;;;;;;5094694;28;20195;-64
2021/05/27 02:32:27;;;;;;;7.07;6.38;;;8.40;99.90;;;;;;5094721;28;20207;-63
2021/05/27 02:34:54;;;;;;;6.35;5.75;;;8.40;99.90;;;;;;5094199;28;20238;-63
2021/05/27 02:37:20;;;;;;;6.80;5.80;;;8.40;99.90;;;;;;5094898;28;20553;-63
2021/05/27 02:39:46;;;;;;;8.10;5.95;;;8.40;99.90;;;;;;5093923;28;20204;-63
2021/05/27 02:42:13;;;;;;;6.38;5.78;;;8.30;99.90;;;;;;5094707;28;20270;-63
2021/05/27 02:44:39;;;;;;;6.72;6.13;;;8.40;99.90;;;;;;5094388;28;20202;-64
2021/05/27 02:47:06;;;;;;;6.97;5.32;;;8.40;99.90;;;;;;5094362;28;20300;-63
2021/05/27 02:49:32;;;;;;;6.55;5.57;;;8.40;99.90;;;;;;5094625;28;20203;-63
2021/05/27 02:51:58;;;;;;;6.50;5.90;;;8.40;99.90;;;;;;5094330;28;20235;-63
2021/05/27 02:54:25;;;;;;;9.13;7.40;;;8.40;99.90;;;;;;5094280;28;20284;-63
2021/05/27 02:56:52;;;;;;;6.72;6.13;;;8.40;99.90;;;;;;5093933;28;20658;-63
2021/05/27 02:59:18;;;;;;;9.95;7.28;;;8.40;99.90;;;;;;5094130;28;20188;-64
2021/05/27 03:01:45;;;;;;;8.77;6.20;;;8.40;99.90;;;;;;5094263;28;20585;-64
2021/05/27 03:04:11;;;;;;;7.80;6.53;;;8.40;99.90;;;;;;5076120;28;20195;-64
2021/05/27 03:06:37;;;;;;;6.72;6.13;;;8.30;99.90;;;;;;5079684;28;20187;-64
2021/05/27 03:09:04;;;;;;;11.15;6.43;;;8.30;99.90;;;;;;5094241;28;20270;-64
2021/05/27 03:11:30;;;;;;;9.45;7.55;;;8.30;99.90;;;;;;5093876;28;20559;-64
2021/05/27 03:13:57;;;;;;;8.93;7.45;;;8.30;99.90;;;;;;5093702;28;20215;-64
2021/05/27 03:16:23;;;;;;;7.03;6.40;;;8.30;99.90;;;;;;5093846;28;20191;-64
2021/05/27 03:18:51;;;;;;;8.70;6.60;;;8.30;99.90;;;;;;5094124;28;20663;-64
2021/05/27 03:21:17;;;;;;;8.15;6.88;;;8.20;99.90;;;;;;5093808;28;20198;-65
2021/05/27 03:23:43;;;;;;;9.25;7.70;;;8.30;99.90;;;;;;5093905;28;20207;-64
2021/05/27 03:26:10;;;;;;;7.72;6.97;;;8.30;99.90;;;;;;5093848;28;20205;-64
2021/05/27 03:28:36;;;;;;;9.38;7.20;;;8.20;99.90;;;;;;5093799;28;20191;-64
2021/05/27 03:31:02;;;;;;;8.23;7.43;;;8.30;99.90;;;;;;5093526;28;20287;-64
2021/05/27 03:33:29;;;;;;;8.55;7.47;;;8.30;99.90;;;;;;5093536;28;20226;-64
2021/05/27 03:35:55;;;;;;;8.20;7.50;;;8.40;99.90;;;;;;5093547;28;20188;-64
2021/05/27 03:38:22;;;;;;;8.57;7.78;;;8.40;99.90;;;;;;5093538;28;20206;-64
2021/05/27 03:40:48;;;;;;;8.45;7.10;;;8.40;99.90;;;;;;5093466;28;20211;-64
2021/05/27 03:43:14;;;;;;;10.38;7.57;;;8.40;99.90;;;;;;5093457;28;20274;-64
2021/05/27 03:45:41;;;;;;;7.80;7.20;;;8.50;99.90;;;;;;5093724;28;20199;-64
2021/05/27 03:48:07;;;;;;;8.43;7.00;;;8.50;99.90;;;;;;5093933;28;20698;-64
2021/05/27 03:50:34;;;;;;;8.40;7.35;;;8.60;99.90;;;;;;5093334;28;20203;-64
2021/05/27 03:53:01;;;;;;;9.68;7.45;;;8.60;99.90;;;;;;5093440;28;20239;-64
2021/05/27 03:55:28;;;;;;;7.93;6.93;;;8.60;99.90;;;;;;5092734;28;20241;-64
2021/05/27 03:57:54;;;;;;;7.10;6.57;;;8.60;99.90;;;;;;5094150;28;20203;-64
2021/05/27 04:07:03;;;;;;;6.45;5.65;;;8.60;99.90;;;;;;5011885;28;20209;-65
2021/05/27 04:08:59;;;;;;;8.27;6.80;;;8.70;99.90;;;;;;5072469;28;20206;-65
2021/05/27 04:11:26;;;;;;;7.50;6.90;;;8.70;99.90;;;;;;5095282;28;20183;-65
2021/05/27 04:13:52;;;;;;;7.63;6.78;;;8.70;99.90;;;;;;5097065;28;20230;-65
2021/05/27 04:16:18;;;;;;;7.90;7.20;;;8.70;99.90;;;;;;5097652;28;20195;-65
2021/05/27 04:18:44;;;;;;;7.75;7.05;;;8.80;99.90;;;;;;5097653;28;20194;-65
2021/05/27 04:21:11;;;;;;;8.20;7.40;;;8.80;99.90;;;;;;5097889;28;20195;-63
2021/05/27 04:23:38;;;;;;;10.90;7.80;;;8.80;99.90;;;;;;5097537;28;20207;-63
2021/05/27 04:26:08;;;;;;;7.50;6.90;;;8.90;99.90;;;;;;5097940;28;20199;-64
2021/05/27 04:28:34;;;;;;;7.65;6.90;;;9.00;99.90;;;;;;5097751;28;20199;-63
2021/05/27 04:31:09;;;;;;;8.95;6.85;;;9.00;99.90;;;;;;5097432;28;20195;-64
2021/05/27 04:33:49;;;;;;;9.93;6.78;;;9.00;99.90;;;;;;5096779;28;20207;-64
2021/05/27 04:36:17;;;;;;;7.50;6.00;;;9.10;99.90;;;;;;5097416;28;20179;-64
2021/05/27 04:38:45;;;;;;;10.13;6.47;;;9.10;99.90;;;;;;5097501;28;20274;-64
2021/05/27 04:41:12;;;;;;;6.32;5.70;;;9.10;99.90;;;;;;5097371;28;20238;-64
2021/05/27 04:43:39;;;;;;;7.03;6.47;;;9.10;99.90;;;;;;5097078;28;20191;-64
2021/05/27 04:46:09;;;;;;;6.00;5.00;;;9.10;99.90;;;;;;5097096;28;20199;-65
2021/05/27 04:48:37;;;;;;;6.88;6.28;;;9.20;99.90;;;;;;5096780;28;20513;-66
2021/05/27 04:51:04;;;;;;;6.40;5.80;;;9.20;99.90;;;;;;5096588;28;20235;-65
2021/05/27 04:53:30;;;;;;;5.93;5.53;;;9.30;99.90;;;;;;5096929;28;20199;-64
2021/05/27 04:55:58;;;;;;;6.28;5.47;;;9.30;99.90;;;;;;5096526;28;20237;-64
2021/05/27 04:58:24;;;;;;;6.50;5.22;;;9.40;99.90;;;;;;5096650;28;20201;-65
2021/05/27 05:00:51;;;;;;;5.57;5.07;;;9.40;99.90;;;;;;5096428;28;20244;-64
2021/05/27 05:03:17;;;;;;;5.43;4.93;;;9.50;99.90;;;;;;5097063;28;20199;-64
2021/05/27 05:05:44;;;;;;;5.70;5.20;;;9.60;99.90;;;;;;5078472;28;20203;-65
2021/05/27 05:08:11;;;;;;;6.32;5.00;;;9.60;99.90;;;;;;5096487;28;20190;-64
2021/05/27 05:10:37;;;;;;;6.22;4.55;;;9.70;99.90;;;;;;5078123;28;20200;-63
2021/05/27 05:13:07;;;;;;;4.45;4.00;;;9.80;99.90;;;;;;5095819;28;20214;-63
2021/05/27 05:15:39;;;;;;;5.38;4.85;;;9.80;99.90;;;;;;5096676;28;20211;-64
2021/05/27 05:18:06;;;;;;;4.68;4.13;;;9.90;99.90;;;;;;5087676;28;20199;-64
2021/05/27 05:20:37;;;;;;;4.82;4.25;;;10.00;99.90;;;;;;5090221;28;20196;-64
2021/05/27 05:23:04;;;;;;;5.88;4.50;;;10.10;99.90;;;;;;5095566;28;20200;-64
2021/05/27 05:25:32;;;;;;;4.63;4.22;;;10.30;99.90;;;;;;5095900;28;20198;-64
2021/05/27 05:27:59;;;;;;;4.63;4.30;;;10.30;99.90;;;;;;5095513;28;20200;-65
2021/05/27 05:30:28;;;;;;;4.20;3.80;;;10.20;99.90;;;;;;5095645;28;20188;-64
2021/05/27 05:32:56;;;;;;;4.57;4.22;;;10.20;99.90;;;;;;5077967;28;20197;-64
2021/05/27 05:35:23;;;;;;;5.45;4.35;;;10.20;99.90;;;;;;5095446;28;20317;-64
2021/05/27 05:37:50;;;;;;;5.72;3.97;;;10.10;99.90;;;;;;5095354;28;20199;-64
2021/05/27 05:40:21;;;;;;;5.95;4.47;;;10.20;99.90;;;;;;5095167;28;20223;-64
2021/05/27 05:42:48;;;;;;;6.07;3.97;;;10.20;99.90;;;;;;5095290;28;20187;-64
2021/05/27 05:45:16;;;;;;;5.32;4.78;;;10.10;99.90;;;;;;5095053;28;20199;-64
2021/05/27 05:47:50;;;;;;;5.53;4.25;;;10.10;99.90;;;;;;5095343;28;20223;-64
2021/05/27 05:50:45;;;;;;;4.63;4.22;;;10.20;99.90;;;;;;5095143;28;20187;-64
2021/05/27 05:53:06;;;;;;;4.65;4.25;;;10.40;99.90;;;;;;5083099;28;20199;-64
2021/05/27 05:55:33;;;;;;;6.43;4.55;;;10.60;99.90;;;;;;5095069;28;20219;-64
2021/05/27 05:58:00;;;;;;;4.00;3.80;;;10.70;99.90;;;;;;5076993;28;20200;-64
2021/05/27 06:00:26;;;;;;;4.72;4.43;;;10.80;99.90;;;;;;5094623;28;20199;-64
2021/05/27 06:02:52;;;;;;;6.15;4.40;;;11.00;99.90;;;;;;5077075;28;20190;-64
2021/05/27 06:05:19;;;;;;;8.23;5.20;;;11.00;99.90;;;;;;5084320;28;20202;-64
2021/05/27 06:07:45;;;;;;;4.28;3.90;;;10.90;99.90;;;;;;5094957;28;20659;-64
2021/05/27 06:10:12;;;;;;;4.75;4.38;;;11.00;99.90;;;;;;5081842;28;20197;-64
2021/05/27 06:12:39;;;;;;;7.65;4.43;;;11.00;99.90;;;;;;5092964;28;20184;-64
2021/05/27 06:15:09;;;;;;;6.47;4.65;;;10.90;99.90;;;;;;5094617;28;20225;-64
2021/05/27 06:17:36;;;;;;;4.13;3.78;;;11.00;99.90;;;;;;5095048;28;20196;-64
2021/05/27 06:20:03;;;;;;;5.97;4.38;;;10.90;99.90;;;;;;5094579;28;20203;-64
2021/05/27 06:22:29;;;;;;;7.13;4.53;;;10.70;99.90;;;;;;5095395;28;20191;-64
2021/05/27 06:24:56;;;;;;;4.18;3.88;;;10.70;99.90;;;;;;5095297;28;20199;-65
2021/05/27 06:27:22;;;;;;;4.40;4.10;;;10.80;99.90;;;;;;5094882;28;20694;-64
2021/05/27 06:29:48;;;;;;;4.53;3.92;;;10.90;99.90;;;;;;5095068;28;20188;-64
2021/05/27 06:32:15;;;;;;;11.45;4.50;;;11.00;99.90;;;;;;5094879;28;20274;-64
2021/05/27 06:34:41;;;;;;;10.48;5.30;;;11.30;99.90;;;;;;5094089;28;20226;-64
2021/05/27 06:37:07;;;;;;;6.32;3.90;;;11.30;99.90;;;;;;5094794;28;20199;-65
2021/05/27 06:39:34;;;;;;;4.18;3.83;;;11.30;99.90;;;;;;5095105;28;20191;-65
2021/05/27 06:42:01;;;;;;;13.88;3.65;;;11.30;99.90;;;;;;5094970;28;20264;-64
2021/05/27 06:44:27;;;;;;;3.78;3.47;;;11.30;99.90;;;;;;5094833;28;20194;-64
2021/05/27 06:46:54;;;;;;;13.07;3.60;;;11.30;99.90;;;;;;5094818;28;20209;-64
2021/05/27 06:49:20;;;;;;;3.85;3.55;;;11.40;99.90;;;;;;5076305;28;20221;-65
2021/05/27 06:51:46;;;;;;;5.30;3.25;;;11.60;99.90;;;;;;5094023;28;20235;-65
2021/05/27 06:54:13;;;;;;;2.80;2.60;;;11.70;99.90;;;;;;5094009;28;20195;-65
2021/05/27 06:56:39;;;;;;;10.15;3.67;;;11.80;99.90;;;;;;5094099;28;20189;-65
2021/05/27 06:59:06;;;;;;;2.60;2.38;;;11.80;99.90;;;;;;5076137;28;20191;-65
2021/05/27 07:01:32;;;;;;;23.73;3.10;;;11.80;99.90;;;;;;5076297;28;20210;-64
2021/05/27 07:03:58;;;;;;;20.65;3.38;;;12.00;99.90;;;;;;5093725;28;20202;-65
2021/05/27 07:06:25;;;;;;;4.38;2.10;;;12.20;99.90;;;;;;5075108;28;20199;-63
2021/05/27 07:08:51;;;;;;;5.35;2.75;;;12.30;99.90;;;;;;5093880;28;20179;-65
2021/05/27 07:11:17;;;;;;;2.85;2.65;;;12.20;99.90;;;;;;5093659;28;20289;-64
2021/05/27 07:13:43;;;;;;;2.38;2.17;;;12.20;99.90;;;;;;5093688;28;20191;-65
2021/05/27 07:16:10;;;;;;;3.00;2.70;;;12.30;99.90;;;;;;5093762;28;20226;-65
2021/05/27 07:18:36;;;;;;;6.25;2.50;;;12.30;99.90;;;;;;5093448;28;20195;-64
2021/05/27 07:21:03;;;;;;;3.55;2.55;;;12.20;99.90;;;;;;5093544;28;20207;-65
2021/05/27 07:23:29;;;;;;;2.70;2.50;;;12.30;99.90;;;;;;5093736;28;20199;-65
2021/05/27 07:25:56;;;;;;;6.13;2.20;;;12.40;99.90;;;;;;5093546;28;20199;-64
2021/05/27 07:28:23;;;;;;;4.80;2.30;;;12.60;99.90;;;;;;5093417;28;20279;-64
2021/05/27 07:30:49;;;;;;;6.63;2.63;;;12.70;99.90;;;;;;5093223;28;20256;-64
2021/05/27 07:33:17;;;;;;;2.00;1.90;;;12.60;99.90;;;;;;5093439;28;20270;-64
2021/05/27 07:35:43;;;;;;;2.10;1.90;;;12.50;99.90;;;;;;5092828;28;20231;-64
2021/05/27 07:38:11;;;;;;;3.47;2.10;;;13.10;99.90;;;;;;5093324;28;20671;-64
2021/05/27 07:40:38;;;;;;;1.63;1.53;;;13.60;99.90;;;;;;5092744;28;20223;-64
2021/05/27 07:43:04;;;;;;;4.80;2.17;;;13.70;99.90;;;;;;5093437;28;20609;-65
2021/05/27 07:45:31;;;;;;;1.80;1.70;;;13.40;61.90;;;;;;5093514;28;20583;-65
2021/05/27 07:47:58;;;;;;;3.35;1.80;;;13.20;67.50;;;;;;5097262;28;20237;-64
2021/05/27 07:50:24;;;;;;;9.02;2.33;;;13.10;97.70;;;;;;5097918;28;20656;-65
2021/05/27 07:52:55;;;;;;;4.68;1.80;;;13.10;89.30;;;;;;5097631;28;20223;-65
2021/05/27 07:55:21;;;;;;;2.40;2.30;;;13.10;69.50;;;;;;5097707;28;20578;-64
2021/05/27 07:57:48;;;;;;;3.53;2.10;;;13.10;63.30;;;;;;5097739;28;20305;-64
2021/05/27 08:00:15;;;;;;;4.50;2.00;;;13.20;92.30;;;;;;5097430;28;20187;-64
2021/05/27 08:02:42;;;;;;;5.72;2.05;;;13.40;86.00;;;;;;5097133;28;20572;-64
2021/05/27 08:05:09;;;;;;;3.20;1.88;;;13.40;83.40;;;;;;5096989;28;20568;-64
2021/05/27 08:07:46;;;;;;;1.65;1.55;;;13.60;99.90;;;;;;5096978;28;20190;-65
2021/05/27 08:10:13;;;;;;;2.72;2.22;;;13.30;99.90;;;;;;5097077;28;20245;-65
2021/05/27 08:12:40;;;;;;;2.38;1.85;;;13.00;99.90;;;;;;5097220;28;20195;-66
2021/05/27 08:15:08;;;;;;;1.85;1.75;;;13.10;99.90;;;;;;5097360;28;20233;-65
2021/05/27 08:17:35;;;;;;;5.93;2.10;;;13.20;99.90;;;;;;5096727;28;20210;-65
2021/05/27 08:20:03;;;;;;;4.80;2.70;;;13.50;99.90;;;;;;5097175;28;20608;-64
2021/05/27 08:22:30;;;;;;;4.50;2.13;;;13.30;99.90;;;;;;5097468;28;20198;-65
2021/05/27 08:24:57;;;;;;;3.83;1.70;;;13.30;99.90;;;;;;5096531;28;20318;-65
2021/05/27 08:27:24;;;;;;;2.92;1.70;;;13.50;99.90;;;;;;5096495;28;21162;-65
2021/05/27 08:29:50;;;;;;;2.77;1.60;;;13.60;99.90;;;;;;5096764;28;20191;-65
2021/05/27 08:32:17;;;;;;;13.83;2.70;;;13.60;99.90;;;;;;5097016;28;20576;-66
2021/05/27 08:34:43;;;;;;;2.33;1.57;;;13.80;99.90;;;;;;5096819;28;20597;-64
2021/05/27 08:37:09;;;;;;;2.10;1.90;;;13.60;99.90;;;;;;5078803;28;20653;-65
2021/05/27 08:39:36;;;;;;;1.90;1.80;;;13.40;99.90;;;;;;5097257;28;21059;-65
2021/05/27 08:42:02;;;;;;;4.00;1.83;;;13.30;99.90;;;;;;5096176;28;20218;-65
2021/05/27 08:44:29;;;;;;;2.40;2.20;;;13.30;99.90;;;;;;5096339;28;20768;-64
2021/05/27 08:46:56;;;;;;;5.03;2.30;;;13.50;99.90;;;;;;5096975;28;20283;-65
2021/05/27 08:49:24;;;;;;;2.50;2.00;;;13.50;99.90;;;;;;5096703;28;20589;-65
2021/05/27 08:51:50;;;;;;;9.90;2.00;;;13.40;99.90;;;;;;5096269;28;21237;-64
2021/05/27 08:54:18;;;;;;;4.57;2.13;;;13.30;99.90;;;;;;5097176;28;20591;-65
2021/05/27 08:56:44;;;;;;;7.03;2.17;;;13.20;99.90;;;;;;5077931;28;21176;-65
2021/05/27 08:59:10;;;;;;;2.08;1.35;;;13.30;99.90;;;;;;5096560;28;20195;-65
2021/05/27 09:02:07;;;;;;;1.98;1.88;;;13.30;99.90;;;;;;5096592;28;20198;-64
2021/05/27 09:04:34;;;;;;;4.53;1.80;;;13.30;99.90;;;;;;5096536;28;20215;-64
2021/05/27 09:07:02;;;;;;;3.43;1.83;;;13.30;99.90;;;;;;5095490;28;20619;-65
2021/05/27 09:09:52;;;;;;;2.33;2.13;;;13.40;99.90;;;;;;5095336;28;20607;-65
2021/05/27 09:12:36;;;;;;;4.22;1.50;;;13.30;75.20;;;;;;5095922;28;20226;-65
2021/05/27 09:15:20;;;;;;;2.57;1.40;;;13.40;97.50;;;;;;5095591;28;20690;-65
2021/05/27 09:17:51;;;;;;;1.20;1.10;;;13.40;93.10;;;;;;5096113;28;20553;-65
2021/05/27 09:20:24;;;;;;;2.73;1.53;;;13.40;99.90;;;;;;5096326;28;20179;-65
2021/05/27 09:23:17;;;;;;;1.57;1.47;;;13.40;99.90;;;;;;5095994;28;20564;-65
2021/05/27 09:25:46;;;;;;;3.40;2.00;;;13.30;74.50;;;;;;5095627;28;20620;-65
2021/05/27 09:28:19;;;;;;;5.70;1.77;;;13.40;94.10;;;;;;5095889;28;20518;-65
2021/05/27 09:30:48;;;;;;;4.03;2.10;;;13.60;88.70;;;;;;5095319;28;20959;-65
2021/05/27 09:33:16;;;;;;;7.80;2.30;;;13.70;40.60;;;;;;5095187;28;20966;-65
2021/05/27 09:35:43;;;;;;;2.20;1.70;;;13.90;28.40;;;;;;5077150;28;20656;-65
2021/05/27 09:38:09;;;;;;;4.17;2.27;;;13.90;1.00;;;;;;5095315;28;20628;-65
2021/05/27 09:40:46;;;;;;;3.77;1.90;;;14.00;1.00;;;;;;5094947;28;20733;-65
2021/05/27 09:43:22;;;;;;;3.23;2.00;;;14.20;1.00;;;;;;5095343;28;20595;-65
2021/05/27 09:46:06;;;;;;;1.93;1.80;;;14.30;1.00;;;;;;5093449;28;20624;-65
2021/05/27 09:48:34;;;;;;;2.50;2.30;;;14.70;1.00;;;;;;5095848;28;20912;-65
2021/05/27 09:51:03;;;;;;;2.27;2.07;;;14.50;1.00;;;;;;5095143;28;20652;-65
2021/05/27 09:53:32;;;;;;;7.07;2.50;;;14.20;1.00;;;;;;5095115;28;20621;-65
2021/05/27 09:56:00;;;;;;;4.67;1.80;;;14.40;1.00;;;;;;5095654;28;20631;-65
2021/05/27 09:58:27;;;;;;;3.43;2.10;;;14.40;1.50;;;;;;5095630;28;20590;-65
2021/05/27 10:00:54;;;;;;;6.20;2.27;;;14.40;1.00;;;;;;5095142;28;20605;-65
2021/05/27 10:03:33;;;;;;;5.97;2.13;;;14.30;5.10;;;;;;5095195;28;20597;-65
2021/05/27 10:06:02;;;;;;;2.20;1.60;;;14.40;11.00;;;;;;5094711;28;20636;-65
2021/05/27 10:08:45;;;;;;;6.10;2.30;;;14.00;1.00;;;;;;5094596;28;20704;-65
2021/05/27 10:11:12;;;;;;;6.20;2.00;;;14.00;1.00;;;;;;5095073;28;20565;-64
2021/05/27 10:13:41;;;;;;;17.53;3.00;;;14.10;5.00;;;;;;5094909;28;20570;-64
2021/05/27 10:16:11;;;;;;;4.77;2.13;;;14.30;1.00;;;;;;5095126;28;21250;-65
2021/05/27 10:18:39;;;;;;;2.50;1.87;;;14.40;1.00;;;;;;5094790;28;20565;-65
2021/05/27 10:21:06;;;;;;;2.97;1.57;;;14.40;1.00;;;;;;5094848;28;20987;-65
2021/05/27 10:23:32;;;;;;;2.50;1.37;;;14.20;1.00;;;;;;5095045;28;20843;-65
2021/05/27 10:25:59;;;;;;;2.20;1.80;;;14.40;1.00;;;;;;5094534;28;20960;-65
2021/05/27 10:28:26;;;;;;;2.17;1.57;;;14.30;1.00;;;;;;5094818;28;20600;-65
2021/05/27 10:30:54;;;;;;;1.47;1.37;;;14.40;1.00;;;;;;5094886;28;20600;-65
2021/05/27 10:33:21;;;;;;;5.63;1.83;;;14.30;1.00;;;;;;5094683;28;20575;-65
2021/05/27 10:35:58;;;;;;;1.97;1.70;;;14.30;1.00;;;;;;5078840;28;20633;-64
2021/05/27 10:38:44;;;;;;;1.97;1.80;;;14.60;1.00;;;;;;5094439;28;20635;-64
2021/05/27 10:41:13;;;;;;;3.83;2.17;;;14.60;1.00;;;;;;5094094;28;20645;-64
2021/05/27 10:44:00;;;;;;;3.57;1.70;;;14.80;1.00;;;;;;5093443;28;20598;-65
2021/05/27 10:46:30;;;;;;;5.47;2.10;;;14.90;1.00;;;;;;5077080;28;20625;-65
2021/05/27 10:48:57;;;;;;;2.20;1.73;;;14.80;1.00;;;;;;5094468;28;20570;-65
2021/05/27 10:51:33;;;;;;;1.60;1.50;;;14.90;1.00;;;;;;5094042;28;20652;-65
2021/05/27 10:54:05;;;;;;;3.90;1.80;;;15.10;1.00;;;;;;5094201;28;20542;-65
2021/05/27 10:56:34;;;;;;;4.07;1.67;;;15.00;1.00;;;;;;5094507;28;20615;-65
2021/05/27 10:59:04;;;;;;;4.80;1.70;;;14.90;1.00;;;;;;5094301;28;20636;-65
2021/05/27 11:01:37;;;;;;;2.17;2.00;;;15.30;1.00;;;;;;5075791;28;20668;-65
2021/05/27 11:04:05;;;;;;;1.60;1.50;;;15.70;1.00;;;;;;5093718;28;20613;-63
2021/05/27 11:06:37;;;;;;;2.07;1.60;;;16.20;1.00;;;;;;5075874;28;20623;-64
2021/05/27 11:09:25;;;;;;;3.60;1.80;;;16.60;1.00;;;;;;5093836;28;20982;-64
2021/05/27 11:12:10;;;;;;;6.63;1.57;;;15.90;1.00;;;;;;5093659;28;20627;-64
2021/05/27 11:14:42;;;;;;;1.90;1.40;;;16.70;1.00;;;;;;5094554;28;21137;-64
2021/05/27 11:17:10;;;;;;;2.90;1.80;;;16.20;1.00;;;;;;5094505;28;20629;-65
2021/05/27 11:22:36;;;;;;;1.20;1.10;;;16.50;1.00;;;;;;5093885;28;21017;-64
2021/05/27 11:27:52;;;;;;;2.27;1.60;;;16.30;1.00;;;;;;5094068;28;20692;-65
2021/05/27 11:30:36;;;;;;;1.57;1.47;;;16.30;1.00;;;;;;5094014;28;20581;-64
2021/05/27 11:33:14;;;;;;;1.13;1.10;;;16.20;1.00;;;;;;5093181;28;20865;-63
2021/05/27 11:35:43;;;;;;;1.40;1.30;;;16.60;1.00;;;;;;5093356;28;20659;-64
2021/05/27 11:38:15;;;;;;;1.57;1.47;;;16.80;1.00;;;;;;5093144;28;20616;-64
2021/05/27 11:41:04;;;;;;;1.83;1.50;;;16.70;1.00;;;;;;5079233;28;20657;-64
2021/05/27 11:43:41;;;;;;;3.03;1.40;;;17.10;1.00;;;;;;5088415;28;21082;-64
2021/05/27 11:46:19;;;;;;;4.00;1.73;;;17.10;1.00;;;;;;5094584;28;20583;-64
2021/05/27 11:51:21;;;;;;;2.00;1.80;;;16.20;1.00;;;;;;5092802;28;20652;-65
2021/05/27 11:53:58;;;;;;;1.50;1.40;;;16.50;1.00;;;;;;5093032;28;20618;-65
2021/05/27 11:56:41;;;;;;;1.60;1.50;;;16.40;1.00;;;;;;5092797;28;20653;-64
2021/05/27 11:59:10;;;;;;;1.53;1.40;;;16.50;1.00;;;;;;5092730;28;20613;-65
2021/05/27 12:01:38;;;;;;;9.60;2.13;;;16.40;1.00;;;;;;5092759;28;20617;-65
2021/05/27 12:04:09;;;;;;;2.07;1.53;;;16.70;1.00;;;;;;5093457;28;20585;-65
2021/05/27 12:07:00;;;;;;;2.13;1.30;;;16.60;1.00;;;;;;5093816;28;20688;-65
2021/05/27 12:09:43;;;;;;;1.83;1.30;;;17.20;1.00;;;;;;5092911;28;20645;-65
2021/05/27 12:12:19;;;;;;;6.20;1.43;;;17.20;1.00;;;;;;5093130;28;20619;-65
2021/05/27 12:14:52;;;;;;;2.47;1.40;;;16.70;99.90;;;;;;5093442;28;20963;-65
2021/05/27 12:17:46;;;;;;;1.50;1.40;;;17.50;99.90;;;;;;5093072;28;20658;-65
2021/05/27 12:20:17;;;;;;;3.03;1.27;;;16.90;99.90;;;;;;5088504;28;21152;-65
2021/05/27 12:22:49;;;;;;;3.30;1.63;;;16.90;99.90;;;;;;5093105;28;20552;-64
2021/05/27 12:25:19;;;;;;;5.47;1.50;;;17.10;99.90;;;;;;5093208;28;20656;-65
2021/05/27 12:27:48;;;;;;;2.33;1.40;;;17.10;99.90;;;;;;5093010;28;20984;-65
2021/05/27 12:30:20;;;;;;;2.30;1.30;;;17.00;34.60;;;;;;5092649;28;21171;-65
2021/05/27 12:32:48;;;;;;;1.33;1.23;;;17.20;99.90;;;;;;5094644;28;20653;-65
2021/05/27 12:35:17;;;;;;;2.37;1.33;;;17.40;99.90;;;;;;5096560;28;20620;-65
2021/05/27 12:37:47;;;;;;;1.50;1.40;;;18.10;99.90;;;;;;5096824;28;20591;-65
2021/05/27 12:40:22;;;;;;;1.40;1.30;;;18.50;99.90;;;;;;5096504;28;20650;-65
2021/05/27 12:42:50;;;;;;;1.50;1.40;;;18.20;99.90;;;;;;5097007;28;20541;-65
2021/05/27 12:45:36;;;;;;;2.13;1.10;;;18.00;99.90;;;;;;5096750;28;20625;-64
2021/05/27 12:48:17;;;;;;;1.10;1.00;;;17.80;99.90;;;;;;5096794;28;20670;-65
2021/05/27 12:51:04;;;;;;;1.87;1.27;;;17.10;99.90;;;;;;5096496;28;20562;-64
2021/05/27 12:53:35;;;;;;;1.43;1.33;;;17.00;99.90;;;;;;5096260;28;20613;-65
2021/05/27 12:56:20;;;;;;;2.30;1.90;;;17.10;99.90;;;;;;5096751;28;20707;-65
2021/05/27 12:58:49;;;;;;;2.10;1.43;;;16.90;99.90;;;;;;5096536;28;20556;-65
2021/05/27 13:01:29;;;;;;;2.60;1.40;;;17.00;99.90;;;;;;5096443;28;20957;-64
2021/05/27 13:03:55;;;;;;;1.30;1.20;;;17.30;99.90;;;;;;5096795;28;20584;-65
2021/05/27 13:06:23;;;;;;;1.43;1.03;;;18.00;99.90;;;;;;5077826;28;20721;-65
2021/05/27 13:08:58;;;;;;;2.10;1.40;;;17.70;99.90;;;;;;5096668;28;20685;-64
2021/05/27 13:11:31;;;;;;;1.47;1.00;;;17.90;99.90;;;;;;5096016;28;20616;-64
2021/05/27 13:13:59;;;;;;;3.47;1.53;;;17.60;99.90;;;;;;5096338;28;20593;-64
2021/05/27 13:16:54;;;;;;;1.33;1.23;;;17.80;99.90;;;;;;5077964;28;20665;-65